Curry, Idaho
Current Conditions -  °F | °C
As of 8:53 AM on Thursday 23 Oct 2014 (Local Time) from KTWF Reporting Station
Scattered Clouds Scattered Clouds  
Wind Chill: 55°   Ceiling: Unl
Heat Index: 55°   Visibility: 10mi
Dew Point: 29°   Wind: 14mph
Humidity: 37%   Direction: 190°S
Pressure: 30.09"   Gusts: NA
Location:  42.5734°N, 114.626°W
Report Text: KTWF 231453Z 19012KT 10SM SCT120 13/M02 A3009 RMK AO2 SLP162 T01281017 53012
Loading
Personal Weather Stations






























Interactive Weather Map
Tropical Storm Tracking
New forecast layout! Learn more

10-Day Weather Forecast

Advertisements
Track Severe Weather on mobile